Time;durP1;ratioP1;P1;durP2;ratioP2;P2;SDS_P1;SDS_P2;PMS_P1;PMS_P2;Temp;Humidity;BMP_temperature;BMP_pressure;BME280_temperature;BME280_humidity;BME280_pressure;Samples;Min_cycle;Max_cycle;Signal;HPM_P1;HPM_P2
2023/09/13 00:02:24;;;;;;;6.87;5.17;;;20.70;99.90;;;;;;4880936;29;20230;-71
2023/09/13 00:04:49;;;;;;;5.70;5.20;;;20.70;99.90;;;;;;4881033;29;20181;-70
2023/09/13 00:07:15;;;;;;;5.57;5.07;;;20.70;99.90;;;;;;4880963;29;20692;-71
2023/09/13 00:09:41;;;;;;;6.60;5.43;;;20.70;99.90;;;;;;4880495;29;20523;-69
2023/09/13 00:12:08;;;;;;;7.10;6.40;;;20.70;99.90;;;;;;4880874;29;20201;-73
2023/09/13 00:14:34;;;;;;;6.87;6.27;;;20.80;99.90;;;;;;4883246;29;20432;-70
2023/09/13 00:16:59;;;;;;;6.27;5.67;;;20.80;99.90;;;;;;4892810;29;20446;-71
2023/09/13 00:19:27;;;;;;;6.87;6.27;;;20.80;99.90;;;;;;4886379;29;20205;-70
2023/09/13 00:21:53;;;;;;;6.93;6.23;;;20.80;99.90;;;;;;4880475;29;20211;-70
2023/09/13 00:24:19;;;;;;;8.77;7.77;;;20.80;99.90;;;;;;4880479;29;20439;-70
2023/09/13 00:26:44;;;;;;;7.13;6.40;;;20.90;99.90;;;;;;4880201;29;20935;-71
2023/09/13 00:29:10;;;;;;;8.37;6.70;;;20.90;99.90;;;;;;4880682;29;20188;-72
2023/09/13 00:31:36;;;;;;;9.00;5.93;;;20.90;99.90;;;;;;4880113;29;20728;-71
2023/09/13 00:34:02;;;;;;;7.80;7.00;;;20.90;99.90;;;;;;4880143;29;20193;-70
2023/09/13 00:36:27;;;;;;;6.50;6.00;;;20.90;99.90;;;;;;4880007;29;20212;-70
2023/09/13 00:38:53;;;;;;;6.83;6.23;;;21.00;99.90;;;;;;4880156;29;20461;-72
2023/09/13 00:41:19;;;;;;;7.50;6.80;;;21.00;99.90;;;;;;4880214;29;20772;-71
2023/09/13 00:43:45;;;;;;;6.17;5.67;;;21.10;99.90;;;;;;4880266;29;20213;-71
2023/09/13 00:46:11;;;;;;;6.13;5.53;;;21.10;99.90;;;;;;4880696;29;20457;-72
2023/09/13 00:48:37;;;;;;;9.00;5.40;;;21.10;99.90;;;;;;4881837;29;20178;-72
2023/09/13 00:51:03;;;;;;;6.30;5.70;;;21.20;99.90;;;;;;4880422;29;20592;-72
2023/09/13 00:53:31;;;;;;;6.93;6.23;;;21.20;99.90;;;;;;4880465;29;20695;-71
2023/09/13 00:55:57;;;;;;;5.87;5.37;;;21.20;99.90;;;;;;4880464;29;20487;-71
2023/09/13 00:58:24;;;;;;;6.90;5.80;;;21.20;99.90;;;;;;4880003;29;20793;-71
2023/09/13 01:00:53;;;;;;;6.40;5.80;;;21.20;99.90;;;;;;4879462;29;20804;-72
2023/09/13 01:03:20;;;;;;;5.87;5.20;;;21.20;99.90;;;;;;4880048;29;20451;-71
2023/09/13 01:05:47;;;;;;;12.23;6.03;;;21.20;99.90;;;;;;4878957;29;20423;-71
2023/09/13 01:08:13;;;;;;;8.00;5.80;;;21.20;99.90;;;;;;4879708;29;20439;-71
2023/09/13 01:10:39;;;;;;;5.80;5.17;;;21.20;99.90;;;;;;4879585;29;21115;-71
2023/09/13 01:13:04;;;;;;;5.43;4.93;;;21.20;99.90;;;;;;4879691;29;20240;-71
2023/09/13 01:15:37;;;;;;;6.13;5.57;;;21.20;99.90;;;;;;4879652;29;20420;-70
2023/09/13 01:18:15;;;;;;;6.43;4.63;;;21.10;99.90;;;;;;4879969;29;20266;-72
2023/09/13 01:20:50;;;;;;;5.40;4.90;;;21.10;99.90;;;;;;4882452;29;20465;-69
2023/09/13 01:23:22;;;;;;;6.33;5.83;;;21.10;99.90;;;;;;4902841;29;20401;-70
2023/09/13 01:26:16;;;;;;;5.40;4.93;;;21.10;99.90;;;;;;4902254;29;20408;-71
2023/09/13 01:28:46;;;;;;;6.27;5.70;;;21.10;99.90;;;;;;4893478;29;20933;-72
2023/09/13 01:31:14;;;;;;;6.00;4.97;;;21.10;99.90;;;;;;4879279;29;20473;-72
2023/09/13 01:33:39;;;;;;;5.53;5.03;;;21.10;99.90;;;;;;4879263;29;21007;-72
2023/09/13 01:36:05;;;;;;;5.57;4.80;;;21.00;99.90;;;;;;4874884;29;20519;-72
2023/09/13 01:38:31;;;;;;;5.13;4.73;;;21.00;99.90;;;;;;4879376;29;20179;-72
2023/09/13 01:41:25;;;;;;;5.23;4.73;;;21.00;99.90;;;;;;4878957;29;20194;-69
2023/09/13 01:43:54;;;;;;;5.70;4.30;;;20.90;99.90;;;;;;4878598;29;20541;-70
2023/09/13 01:46:30;;;;;;;5.87;5.27;;;20.90;99.90;;;;;;4879213;29;20415;-71
2023/09/13 01:48:57;;;;;;;6.40;5.77;;;20.90;99.90;;;;;;4879192;29;20824;-71
2023/09/13 01:51:27;;;;;;;6.93;5.33;;;20.90;99.90;;;;;;4879696;29;20444;-70
2023/09/13 01:53:55;;;;;;;5.70;5.10;;;20.90;99.90;;;;;;4878960;29;20507;-72
2023/09/13 01:56:21;;;;;;;5.60;5.10;;;20.90;99.90;;;;;;4878638;29;20480;-72
2023/09/13 01:58:48;;;;;;;5.47;5.00;;;20.90;99.90;;;;;;4878544;29;20468;-71
2023/09/13 02:01:14;;;;;;;5.67;5.13;;;20.90;99.90;;;;;;4878548;29;20208;-71
2023/09/13 02:03:40;;;;;;;7.67;5.33;;;21.00;99.90;;;;;;4878488;29;20420;-70
2023/09/13 02:06:05;;;;;;;5.70;4.50;;;20.90;99.90;;;;;;4878600;29;20456;-71
2023/09/13 02:08:32;;;;;;;13.60;6.00;;;20.80;99.90;;;;;;4878525;29;20173;-70
2023/09/13 02:10:57;;;;;;;11.90;6.23;;;20.10;99.90;;;;;;4878105;29;20211;-70
2023/09/13 02:13:23;;;;;;;9.53;5.67;;;19.90;99.90;;;;;;4878453;29;20788;-73
2023/09/13 02:15:48;;;;;;;11.30;6.23;;;19.50;99.90;;;;;;4878589;29;20720;-73
2023/09/13 02:18:14;;;;;;;8.40;6.00;;;19.50;99.90;;;;;;4877596;29;20183;-73
2023/09/13 02:20:40;;;;;;;8.20;5.97;;;19.30;99.90;;;;;;4878215;29;20208;-73
2023/09/13 02:23:05;;;;;;;11.20;5.50;;;19.10;99.90;;;;;;4878405;29;20420;-73
2023/09/13 02:25:40;;;;;;;6.90;5.50;;;19.00;99.90;;;;;;4878249;29;20178;-72
2023/09/13 02:28:05;;;;;;;9.27;6.30;;;19.00;99.90;;;;;;4884049;29;20177;-73
2023/09/13 02:30:33;;;;;;;8.33;6.13;;;18.90;99.90;;;;;;4878664;29;20445;-74
2023/09/13 02:32:59;;;;;;;8.73;7.93;;;18.80;99.90;;;;;;4878055;29;20233;-73
2023/09/13 02:35:25;;;;;;;8.73;5.40;;;18.80;99.90;;;;;;4878132;29;20873;-74
2023/09/13 02:37:51;;;;;;;6.00;5.50;;;18.80;99.90;;;;;;4878109;29;20240;-73
2023/09/13 02:40:17;;;;;;;8.93;6.43;;;18.60;99.90;;;;;;4878055;29;20554;-73
2023/09/13 02:42:42;;;;;;;8.30;5.90;;;18.50;99.90;;;;;;4877982;29;20702;-73
2023/09/13 02:45:09;;;;;;;6.90;6.23;;;18.50;99.90;;;;;;4878192;29;20176;-73
2023/09/13 02:47:34;;;;;;;9.03;5.40;;;18.40;99.90;;;;;;4878190;29;20179;-73
2023/09/13 02:50:00;;;;;;;7.70;4.97;;;18.30;99.90;;;;;;4878308;29;20449;-73
2023/09/13 02:52:30;;;;;;;7.27;5.20;;;18.30;99.90;;;;;;4877921;29;20256;-73
2023/09/13 02:54:57;;;;;;;7.30;4.73;;;18.20;99.90;;;;;;4878313;29;20505;-72
2023/09/13 02:57:22;;;;;;;9.77;6.17;;;18.10;99.90;;;;;;4878015;29;20923;-73
2023/09/13 02:59:48;;;;;;;7.60;5.93;;;18.10;99.90;;;;;;4877803;29;20560;-72
2023/09/13 03:02:13;;;;;;;7.87;5.13;;;18.10;99.90;;;;;;4877873;29;20174;-72
2023/09/13 03:04:40;;;;;;;9.00;5.63;;;18.10;99.90;;;;;;4877159;29;20541;-72
2023/09/13 03:07:06;;;;;;;6.97;6.00;;;18.10;99.90;;;;;;4878446;29;20190;-73
2023/09/13 03:09:31;;;;;;;6.10;4.80;;;18.00;99.90;;;;;;4882690;29;20414;-71
2023/09/13 03:11:57;;;;;;;5.57;4.60;;;18.00;99.90;;;;;;4890487;29;20186;-71
2023/09/13 03:14:22;;;;;;;5.17;4.30;;;18.00;99.90;;;;;;4886617;29;20633;-71
2023/09/13 03:16:48;;;;;;;8.50;4.80;;;18.00;99.90;;;;;;4883234;29;20184;-71
2023/09/13 03:19:14;;;;;;;7.33;5.47;;;18.00;99.90;;;;;;4879358;29;20692;-71
2023/09/13 03:21:42;;;;;;;7.77;6.00;;;18.00;99.90;;;;;;4877461;29;20193;-70
2023/09/13 03:24:07;;;;;;;8.83;5.87;;;17.90;99.90;;;;;;4877659;29;20227;-70
2023/09/13 03:26:33;;;;;;;6.20;5.60;;;18.00;99.90;;;;;;4877755;29;20453;-69
2023/09/13 03:28:58;;;;;;;9.20;5.90;;;18.00;99.90;;;;;;4878188;29;20188;-70
2023/09/13 03:31:26;;;;;;;7.80;6.27;;;17.90;99.90;;;;;;4880768;29;20688;-69
2023/09/13 03:33:54;;;;;;;9.53;5.70;;;17.90;99.90;;;;;;4880712;29;20233;-71
2023/09/13 03:36:20;;;;;;;6.80;6.10;;;18.00;99.90;;;;;;4880621;29;20783;-70
2023/09/13 03:38:46;;;;;;;7.03;6.30;;;18.00;99.90;;;;;;4880646;29;20456;-70
2023/09/13 03:41:14;;;;;;;6.50;5.90;;;18.00;99.90;;;;;;4880696;29;20445;-71
2023/09/13 03:43:40;;;;;;;8.33;6.10;;;18.00;99.90;;;;;;4881076;29;20427;-70
2023/09/13 03:46:07;;;;;;;7.97;6.30;;;18.00;99.90;;;;;;4880947;29;20427;-71
2023/09/13 03:48:34;;;;;;;8.83;6.03;;;18.00;99.90;;;;;;4880996;29;20426;-71
2023/09/13 03:51:00;;;;;;;5.83;5.30;;;18.00;99.90;;;;;;4870119;29;20477;-72
2023/09/13 03:53:26;;;;;;;7.40;6.60;;;18.00;99.90;;;;;;4880984;29;20937;-71
2023/09/13 03:55:53;;;;;;;7.77;6.27;;;18.00;99.90;;;;;;4873846;29;20830;-73
2023/09/13 03:58:19;;;;;;;11.83;6.23;;;18.00;99.90;;;;;;4879693;29;20445;-71
2023/09/13 04:00:45;;;;;;;9.20;8.30;;;18.00;99.90;;;;;;4876693;29;20488;-71
2023/09/13 04:03:11;;;;;;;8.60;7.43;;;18.00;99.90;;;;;;4880374;29;20422;-71
2023/09/13 04:05:37;;;;;;;8.40;7.03;;;17.90;99.90;;;;;;4880223;29;20170;-71
2023/09/13 04:08:03;;;;;;;8.40;6.83;;;17.90;99.90;;;;;;4879529;29;20951;-71
2023/09/13 04:10:28;;;;;;;9.10;7.03;;;17.90;99.90;;;;;;4879932;29;20245;-71
2023/09/13 04:12:54;;;;;;;11.00;7.27;;;17.90;99.90;;;;;;4880369;29;20610;-71
2023/09/13 04:15:20;;;;;;;13.63;7.00;;;17.90;99.90;;;;;;4880740;29;20638;-70
2023/09/13 04:17:45;;;;;;;8.03;7.30;;;18.00;99.90;;;;;;4880491;29;20188;-69
2023/09/13 04:20:12;;;;;;;8.80;7.20;;;18.00;99.90;;;;;;4880162;29;20287;-71
2023/09/13 04:22:37;;;;;;;11.47;8.10;;;17.90;99.90;;;;;;4880056;29;20265;-70
2023/09/13 04:25:06;;;;;;;11.07;7.83;;;18.00;99.90;;;;;;4879463;29;20898;-71
2023/09/13 04:27:32;;;;;;;9.20;8.23;;;18.00;99.90;;;;;;4880119;29;20174;-71
2023/09/13 04:29:58;;;;;;;10.17;9.00;;;18.00;99.90;;;;;;4880049;29;20817;-70
2023/09/13 04:32:24;;;;;;;11.77;9.20;;;18.00;99.90;;;;;;4880000;29;20184;-71
2023/09/13 04:34:50;;;;;;;13.30;9.80;;;17.90;99.90;;;;;;4880332;29;20209;-69
2023/09/13 04:37:16;;;;;;;12.93;10.97;;;18.00;99.90;;;;;;4877393;29;20434;-70
2023/09/13 04:39:42;;;;;;;12.33;9.70;;;17.90;99.90;;;;;;4879658;29;20598;-72
2023/09/13 04:42:07;;;;;;;13.50;10.23;;;18.00;99.90;;;;;;4878678;29;20182;-72
2023/09/13 04:44:33;;;;;;;14.53;10.90;;;17.90;99.90;;;;;;4879716;29;20418;-71
2023/09/13 04:47:02;;;;;;;14.63;10.07;;;17.90;99.90;;;;;;4879679;29;20549;-71
2023/09/13 04:49:28;;;;;;;11.60;10.27;;;17.90;99.90;;;;;;4879623;29;20192;-71
2023/09/13 04:51:55;;;;;;;13.53;9.97;;;17.90;99.90;;;;;;4879253;29;20501;-71
2023/09/13 04:54:22;;;;;;;14.77;10.03;;;17.90;99.90;;;;;;4879502;29;20513;-71
2023/09/13 04:56:49;;;;;;;12.33;9.13;;;17.90;99.90;;;;;;4879944;29;20505;-71
2023/09/13 04:59:14;;;;;;;12.60;9.90;;;18.00;99.90;;;;;;4871914;29;20461;-70
2023/09/13 05:01:40;;;;;;;14.03;10.57;;;18.00;99.90;;;;;;4878989;29;20528;-71
2023/09/13 05:04:06;;;;;;;15.70;11.20;;;18.00;99.90;;;;;;4879668;29;20652;-72
2023/09/13 05:06:31;;;;;;;13.20;11.53;;;18.00;99.90;;;;;;4879364;29;20256;-72
2023/09/13 05:08:57;;;;;;;13.27;11.97;;;18.00;99.90;;;;;;4879391;29;20272;-72
2023/09/13 05:11:23;;;;;;;14.00;11.97;;;18.10;99.90;;;;;;4879484;29;20280;-70
2023/09/13 05:13:49;;;;;;;14.43;12.93;;;18.10;99.90;;;;;;4879257;29;20186;-71
2023/09/13 05:16:21;;;;;;;13.17;10.80;;;18.10;99.90;;;;;;4902232;23;20450;-67
2023/09/13 05:18:47;;;;;;;11.97;10.60;;;18.20;99.90;;;;;;4912535;29;20464;-67
2023/09/13 05:21:12;;;;;;;13.97;11.87;;;18.20;99.90;;;;;;4900529;29;20804;-66
2023/09/13 05:23:38;;;;;;;14.37;12.77;;;18.20;99.90;;;;;;4916185;29;20170;-66
2023/09/13 05:26:04;;;;;;;15.47;11.67;;;18.20;99.90;;;;;;4915338;29;20192;-66
2023/09/13 05:28:33;;;;;;;16.47;10.87;;;18.20;99.90;;;;;;4897292;29;20226;-66
2023/09/13 05:31:02;;;;;;;15.43;11.60;;;18.30;99.90;;;;;;4897085;29;20170;-67
2023/09/13 05:33:28;;;;;;;12.50;11.30;;;18.30;99.90;;;;;;4897457;29;20914;-67
2023/09/13 05:35:54;;;;;;;16.93;12.90;;;18.30;99.90;;;;;;4895793;29;20431;-67
2023/09/13 05:38:20;;;;;;;14.27;12.70;;;18.30;99.90;;;;;;4897050;29;20448;-67
2023/09/13 05:40:46;;;;;;;14.03;12.60;;;18.40;99.90;;;;;;4897203;29;20458;-69
2023/09/13 05:43:12;;;;;;;16.13;12.60;;;18.40;99.90;;;;;;4897042;29;20429;-67
2023/09/13 05:45:37;;;;;;;15.53;12.90;;;18.40;99.90;;;;;;4896908;29;20321;-68
2023/09/13 05:48:04;;;;;;;15.60;14.20;;;18.40;99.90;;;;;;4896800;29;20217;-67
2023/09/13 05:50:30;;;;;;;14.70;13.40;;;18.50;99.90;;;;;;4897153;29;20204;-67
2023/09/13 05:52:55;;;;;;;13.70;12.33;;;18.50;99.90;;;;;;4896687;29;20512;-69
2023/09/13 05:55:21;;;;;;;15.30;13.80;;;18.50;99.90;;;;;;4896887;29;20175;-67
2023/09/13 05:57:47;;;;;;;15.20;13.60;;;18.50;99.90;;;;;;4896772;29;20739;-68
2023/09/13 06:00:13;;;;;;;12.47;11.17;;;18.60;99.90;;;;;;4896337;29;20300;-67
2023/09/13 06:02:39;;;;;;;13.30;12.03;;;18.80;99.90;;;;;;4888918;29;20180;-67
2023/09/13 06:05:05;;;;;;;11.17;10.10;;;19.30;99.90;;;;;;4896681;29;20424;-68
2023/09/13 06:07:31;;;;;;;12.27;11.00;;;19.40;99.90;;;;;;4888762;29;20196;-69
2023/09/13 06:09:58;;;;;;;9.83;8.93;;;19.70;99.90;;;;;;4896617;29;20428;-71
2023/09/13 06:12:25;;;;;;;9.30;8.40;;;20.20;99.90;;;;;;4896287;29;20174;-68
2023/09/13 06:14:53;;;;;;;9.60;8.67;;;20.80;99.90;;;;;;4897235;29;20872;-66
2023/09/13 06:17:19;;;;;;;9.73;8.50;;;20.70;99.90;;;;;;4895034;29;20507;-67
2023/09/13 06:19:45;;;;;;;10.10;8.67;;;21.00;99.90;;;;;;4896549;29;20468;-69
2023/09/13 06:22:10;;;;;;;7.83;7.13;;;21.70;99.90;;;;;;4896335;29;20186;-68
2023/09/13 06:24:36;;;;;;;9.07;8.17;;;22.10;99.90;;;;;;4896597;29;20283;-68
2023/09/13 06:27:01;;;;;;;11.60;8.50;;;22.20;99.90;;;;;;4896322;29;20653;-67
2023/09/13 06:29:27;;;;;;;9.40;7.53;;;22.30;99.90;;;;;;4896354;29;20646;-66
2023/09/13 06:31:54;;;;;;;8.17;7.30;;;22.40;99.90;;;;;;4896250;29;20178;-67
2023/09/13 06:34:20;;;;;;;10.43;6.70;;;22.70;99.90;;;;;;4896510;29;20180;-67
2023/09/13 06:36:48;;;;;;;7.80;7.10;;;23.60;99.90;;;;;;4888788;29;20447;-67
2023/09/13 06:39:14;;;;;;;8.90;7.60;;;23.50;99.90;;;;;;4896623;29;20213;-67
2023/09/13 06:41:40;;;;;;;9.63;7.17;;;23.50;99.90;;;;;;4895894;29;20414;-67
2023/09/13 06:44:09;;;;;;;7.97;6.50;;;23.30;99.90;;;;;;4896269;29;20428;-67
2023/09/13 06:46:36;;;;;;;9.37;8.43;;;23.30;99.90;;;;;;4896288;29;20523;-69
2023/09/13 06:49:02;;;;;;;10.43;9.33;;;23.20;99.90;;;;;;4896243;29;20767;-67
2023/09/13 06:51:28;;;;;;;8.80;8.00;;;23.60;99.90;;;;;;4895969;29;20424;-67
2023/09/13 06:53:53;;;;;;;7.93;7.23;;;22.90;99.90;;;;;;4896245;29;20432;-67
2023/09/13 06:56:19;;;;;;;7.40;6.53;;;22.40;99.90;;;;;;4895881;29;20203;-67
2023/09/13 06:58:44;;;;;;;10.80;6.50;;;21.70;99.90;;;;;;4889482;29;20264;-67
2023/09/13 07:01:10;;;;;;;8.90;8.10;;;21.50;99.90;;;;;;4894235;29;20586;-67
2023/09/13 07:03:36;;;;;;;9.20;6.60;;;21.80;99.90;;;;;;4896197;29;20534;-67
2023/09/13 07:06:01;;;;;;;6.90;6.30;;;21.40;99.90;;;;;;4890550;29;20648;-68
2023/09/13 07:08:27;;;;;;;9.03;8.13;;;20.90;99.90;;;;;;4898404;29;20264;-68
2023/09/13 07:10:52;;;;;;;9.87;6.90;;;21.10;99.90;;;;;;4899303;29;20622;-67
2023/09/13 07:13:18;;;;;;;12.73;8.23;;;21.50;99.90;;;;;;4898687;29;20269;-67
2023/09/13 07:15:44;;;;;;;6.70;6.10;;;21.50;99.90;;;;;;4894540;29;20185;-68
2023/09/13 07:18:09;;;;;;;7.77;6.70;;;21.30;99.90;;;;;;4899396;29;20294;-68
2023/09/13 07:20:35;;;;;;;7.73;6.97;;;21.30;99.90;;;;;;4899619;29;20206;-68
2023/09/13 07:23:01;;;;;;;6.00;4.93;;;21.30;99.90;;;;;;4897391;29;20609;-68
2023/09/13 07:25:26;;;;;;;7.30;5.43;;;21.10;99.90;;;;;;4899495;29;20727;-68
2023/09/13 07:27:52;;;;;;;7.80;6.13;;;21.20;99.90;;;;;;4899437;29;20199;-68
2023/09/13 07:30:18;;;;;;;6.53;5.40;;;21.00;99.90;;;;;;4899387;29;20185;-67
2023/09/13 07:32:47;;;;;;;5.87;5.37;;;20.50;99.90;;;;;;4899417;29;20680;-67
2023/09/13 07:35:13;;;;;;;6.77;6.10;;;20.80;99.90;;;;;;4899384;29;20449;-66
2023/09/13 07:37:38;;;;;;;8.37;5.80;;;20.90;99.90;;;;;;4899239;29;20943;-67
2023/09/13 07:40:04;;;;;;;6.77;5.17;;;20.90;99.90;;;;;;4897372;29;20256;-66
2023/09/13 07:42:30;;;;;;;6.00;5.20;;;20.80;99.90;;;;;;4899074;29;20178;-67
2023/09/13 07:44:56;;;;;;;7.83;6.60;;;20.60;99.90;;;;;;4899199;29;20905;-69
2023/09/13 07:47:22;;;;;;;8.17;6.27;;;20.50;99.90;;;;;;4898986;29;20498;-67
2023/09/13 07:49:49;;;;;;;6.80;6.20;;;20.60;99.90;;;;;;4899072;29;20639;-69
2023/09/13 07:52:14;;;;;;;6.23;5.63;;;20.20;99.90;;;;;;4898933;29;20430;-68
2023/09/13 07:54:41;;;;;;;7.47;6.77;;;20.10;99.90;;;;;;4899407;29;20778;-67
2023/09/13 07:57:06;;;;;;;5.40;4.90;;;20.00;99.90;;;;;;4898817;29;20199;-67
2023/09/13 07:59:32;;;;;;;6.90;6.27;;;20.10;99.90;;;;;;4890191;29;20513;-67
2023/09/13 08:01:58;;;;;;;9.80;5.60;;;20.10;99.90;;;;;;4899071;29;20178;-66
2023/09/13 08:04:23;;;;;;;5.80;5.30;;;20.20;99.90;;;;;;4898855;29;20179;-67
2023/09/13 08:06:49;;;;;;;9.67;5.67;;;20.20;99.90;;;;;;4891194;29;20211;-68
2023/09/13 08:09:15;;;;;;;6.40;5.50;;;20.30;99.90;;;;;;4890811;29;20184;-68
2023/09/13 08:11:42;;;;;;;7.03;6.10;;;20.30;99.90;;;;;;4898597;29;20177;-68
2023/09/13 08:14:07;;;;;;;6.53;4.37;;;20.60;99.90;;;;;;4897175;29;20428;-67
2023/09/13 08:16:34;;;;;;;8.50;6.10;;;20.70;99.90;;;;;;4898487;29;20529;-67
2023/09/13 08:18:59;;;;;;;9.60;7.40;;;20.70;99.90;;;;;;4890823;29;20207;-66
2023/09/13 08:21:25;;;;;;;5.80;5.20;;;20.40;99.90;;;;;;4898428;29;20413;-69
2023/09/13 08:23:51;;;;;;;7.37;5.80;;;20.30;99.90;;;;;;4898451;29;20621;-69
2023/09/13 08:26:16;;;;;;;7.37;5.23;;;20.30;99.90;;;;;;4898257;29;20188;-66
2023/09/13 08:28:42;;;;;;;5.20;4.57;;;20.40;99.90;;;;;;4898529;29;20246;-67
2023/09/13 08:31:08;;;;;;;5.63;5.13;;;20.50;99.90;;;;;;4898428;29;20201;-67
2023/09/13 08:33:33;;;;;;;5.97;5.13;;;20.50;99.90;;;;;;4898137;29;20167;-67
2023/09/13 08:36:01;;;;;;;9.07;6.27;;;20.30;99.90;;;;;;4898202;29;20257;-67
2023/09/13 08:38:27;;;;;;;6.00;5.40;;;20.50;99.90;;;;;;4898086;29;20639;-68
2023/09/13 08:40:54;;;;;;;5.60;4.20;;;20.30;99.90;;;;;;4883675;29;20468;-67
2023/09/13 08:43:21;;;;;;;4.37;3.83;;;20.50;99.90;;;;;;4898188;29;20192;-67
2023/09/13 08:45:48;;;;;;;4.37;3.90;;;20.50;99.90;;;;;;4898117;29;20710;-67
2023/09/13 08:48:16;;;;;;;4.67;4.20;;;20.60;99.90;;;;;;4897746;29;20540;-67
2023/09/13 08:50:42;;;;;;;4.70;4.27;;;21.10;99.90;;;;;;4897994;29;20424;-67
2023/09/13 08:53:10;;;;;;;6.90;3.07;;;21.80;99.90;;;;;;4897759;29;20432;-67
2023/09/13 08:55:37;;;;;;;4.40;4.00;;;22.00;99.90;;;;;;4896785;29;20800;-67
2023/09/13 08:58:03;;;;;;;9.57;5.37;;;21.70;99.90;;;;;;4896763;29;20962;-68
2023/09/13 09:00:33;;;;;;;3.53;2.90;;;22.00;99.90;;;;;;4890019;29;20465;-69
2023/09/13 09:03:02;;;;;;;3.80;3.40;;;21.70;99.90;;;;;;4897825;29;20207;-69
2023/09/13 09:05:31;;;;;;;3.53;2.93;;;21.90;99.90;;;;;;4896267;29;20414;-67
2023/09/13 09:07:58;;;;;;;2.90;2.70;;;21.60;99.90;;;;;;4893683;29;20444;-67
2023/09/13 09:10:24;;;;;;;3.17;2.70;;;21.70;99.90;;;;;;4897955;29;20504;-68
2023/09/13 09:12:53;;;;;;;3.10;2.80;;;22.00;99.90;;;;;;4897690;29;20435;-68
2023/09/13 09:15:20;;;;;;;3.00;2.80;;;22.10;99.90;;;;;;4895938;29;21003;-66
2023/09/13 09:17:48;;;;;;;3.47;3.17;;;21.60;99.90;;;;;;4892524;29;20458;-69
2023/09/13 09:20:14;;;;;;;5.97;2.43;;;21.40;99.90;;;;;;4895357;29;20850;-71
2023/09/13 09:22:41;;;;;;;3.60;2.40;;;21.30;99.90;;;;;;4897469;29;20417;-68
2023/09/13 09:25:10;;;;;;;3.30;2.73;;;21.10;99.90;;;;;;4898015;29;20182;-68
2023/09/13 09:27:38;;;;;;;3.93;2.20;;;21.00;99.90;;;;;;4896851;29;20442;-71
2023/09/13 09:30:05;;;;;;;3.40;2.57;;;21.10;99.90;;;;;;4897347;29;20506;-71
2023/09/13 09:32:31;;;;;;;3.73;2.40;;;21.10;99.90;;;;;;4880361;29;20426;-69
2023/09/13 09:35:00;;;;;;;2.60;2.40;;;20.90;99.90;;;;;;4897204;29;20429;-70
2023/09/13 09:37:30;;;;;;;3.20;2.60;;;20.80;99.90;;;;;;4897104;29;20630;-66
2023/09/13 09:39:55;;;;;;;2.90;2.70;;;21.00;99.90;;;;;;4897114;29;20468;-66
2023/09/13 09:42:21;;;;;;;2.53;2.20;;;21.20;99.90;;;;;;4896949;29;20426;-66
2023/09/13 09:44:47;;;;;;;4.20;3.80;;;21.10;99.90;;;;;;4897053;29;20226;-67
2023/09/13 09:47:13;;;;;;;3.50;3.20;;;21.40;99.90;;;;;;4896493;29;20633;-66
2023/09/13 09:49:41;;;;;;;4.20;3.77;;;21.20;99.90;;;;;;4896892;29;20618;-66
2023/09/13 09:52:10;;;;;;;4.13;3.07;;;21.30;99.90;;;;;;4890004;29;20439;-68
2023/09/13 09:54:37;;;;;;;3.27;2.90;;;21.60;99.90;;;;;;4882404;29;20424;-67
2023/09/13 09:57:04;;;;;;;4.37;2.10;;;21.70;99.90;;;;;;4897033;29;20483;-68
2023/09/13 09:59:30;;;;;;;3.33;2.80;;;21.70;99.90;;;;;;4887384;29;20462;-67
2023/09/13 10:01:59;;;;;;;3.23;2.83;;;21.20;99.90;;;;;;4896994;29;20417;-67
2023/09/13 10:04:26;;;;;;;2.83;2.63;;;21.10;99.90;;;;;;4896856;29;20420;-67
2023/09/13 10:07:05;;;;;;;3.00;2.80;;;21.10;99.90;;;;;;4890198;29;20545;-68
2023/09/13 10:09:40;;;;;;;3.03;2.83;;;21.40;99.90;;;;;;4896626;29;20423;-71
2023/09/13 10:12:07;;;;;;;6.40;4.67;;;21.60;99.90;;;;;;4896551;29;20426;-67
2023/09/13 10:14:34;;;;;;;3.00;2.80;;;22.00;99.90;;;;;;4891927;29;20425;-68
2023/09/13 10:17:02;;;;;;;4.93;2.37;;;21.80;99.90;;;;;;4890580;29;20491;-67
2023/09/13 10:19:32;;;;;;;2.40;2.20;;;22.00;99.90;;;;;;4896806;29;20459;-67
2023/09/13 10:21:58;;;;;;;2.43;2.20;;;21.70;99.90;;;;;;4897156;29;20516;-68
2023/09/13 10:24:29;;;;;;;3.50;3.07;;;22.20;99.90;;;;;;4896553;29;20417;-67
2023/09/13 10:26:57;;;;;;;3.50;3.20;;;22.60;99.90;;;;;;4896381;29;20496;-67
2023/09/13 10:29:45;;;;;;;2.50;2.30;;;22.80;99.90;;;;;;4896459;29;20424;-71
2023/09/13 10:32:14;;;;;;;3.50;2.70;;;22.70;99.90;;;;;;4896240;29;20428;-69
2023/09/13 10:34:54;;;;;;;3.70;2.90;;;22.60;99.90;;;;;;4896495;29;20502;-68
2023/09/13 10:37:41;;;;;;;4.30;3.90;;;22.40;99.90;;;;;;4896529;29;20444;-67
2023/09/13 10:40:17;;;;;;;2.53;2.33;;;22.60;99.90;;;;;;4895933;29;20467;-67
2023/09/13 10:42:43;;;;;;;2.63;2.43;;;22.40;99.90;;;;;;4896082;29;20459;-68
2023/09/13 10:45:10;;;;;;;3.77;3.43;;;22.50;99.90;;;;;;4896475;29;20876;-70
2023/09/13 10:47:37;;;;;;;2.93;2.70;;;22.90;99.90;;;;;;4896026;29;20444;-68
2023/09/13 10:50:05;;;;;;;2.87;2.23;;;22.40;99.90;;;;;;4896382;29;20474;-69
2023/09/13 10:52:32;;;;;;;3.10;2.77;;;22.30;99.90;;;;;;4896198;29;20446;-66
2023/09/13 10:55:00;;;;;;;3.97;3.67;;;22.50;99.90;;;;;;4896937;29;20442;-69
2023/09/13 10:57:26;;;;;;;2.77;2.57;;;22.80;99.90;;;;;;4897295;29;20512;-68
2023/09/13 10:59:52;;;;;;;3.80;2.57;;;22.40;99.90;;;;;;4886660;29;20985;-70
2023/09/13 11:02:22;;;;;;;3.20;2.90;;;22.60;99.90;;;;;;4896159;29;20936;-68
2023/09/13 11:04:48;;;;;;;2.37;2.17;;;22.70;99.90;;;;;;4896266;29;20421;-70
2023/09/13 11:07:15;;;;;;;3.30;3.03;;;23.10;99.90;;;;;;4889204;29;20611;-68
2023/09/13 11:09:42;;;;;;;3.73;2.63;;;23.40;99.90;;;;;;4896253;29;20450;-68
2023/09/13 11:12:13;;;;;;;3.90;2.27;;;23.40;99.90;;;;;;4896272;29;20417;-70
2023/09/13 11:14:47;;;;;;;2.83;2.13;;;23.70;99.90;;;;;;4892715;29;20420;-68
2023/09/13 11:17:38;;;;;;;2.40;2.10;;;23.90;99.90;;;;;;4895819;29;20455;-69
2023/09/13 11:20:22;;;;;;;3.37;2.27;;;23.60;99.90;;;;;;4896079;29;20475;-69
2023/09/13 11:23:14;;;;;;;2.37;2.17;;;23.40;99.90;;;;;;4895927;29;20410;-69
2023/09/13 11:25:52;;;;;;;3.13;1.93;;;23.60;99.90;;;;;;4896417;29;20910;-68
2023/09/13 11:28:38;;;;;;;3.93;2.70;;;23.30;99.90;;;;;;4895734;29;20443;-69
2023/09/13 11:31:06;;;;;;;2.33;2.13;;;22.70;99.90;;;;;;4888499;29;20422;-67
2023/09/13 11:33:38;;;;;;;1.97;1.87;;;22.60;99.90;;;;;;4895863;29;20917;-67
2023/09/13 11:36:04;;;;;;;2.50;2.30;;;22.80;99.90;;;;;;4932364;23;20498;-75
2023/09/13 11:38:30;;;;;;;2.33;2.13;;;22.70;99.90;;;;;;4914959;29;20420;-73
2023/09/13 11:40:58;;;;;;;5.30;4.33;;;22.80;99.90;;;;;;4914942;29;20994;-73
2023/09/13 11:43:27;;;;;;;3.20;2.97;;;22.80;99.90;;;;;;4914753;29;20430;-73
2023/09/13 11:45:57;;;;;;;10.20;6.93;;;22.80;99.90;;;;;;4913748;29;20460;-73
2023/09/13 11:48:26;;;;;;;4.83;2.60;;;22.30;99.90;;;;;;4915387;29;20514;-73
2023/09/13 11:50:52;;;;;;;2.63;2.33;;;22.10;99.90;;;;;;4916636;29;20438;-74
2023/09/13 11:53:27;;;;;;;4.97;2.53;;;22.00;99.90;;;;;;4917789;29;20430;-75
2023/09/13 11:55:57;;;;;;;3.30;2.10;;;21.80;99.90;;;;;;4918295;29;20440;-73
2023/09/13 11:58:37;;;;;;;2.83;2.57;;;21.70;99.90;;;;;;4913881;29;20510;-72
2023/09/13 12:01:05;;;;;;;3.00;2.70;;;21.20;99.90;;;;;;4913329;29;20829;-73
2023/09/13 12:03:39;;;;;;;6.50;3.83;;;21.50;99.90;;;;;;4918015;29;20479;-72
2023/09/13 12:06:06;;;;;;;2.70;2.50;;;21.60;99.90;;;;;;4898130;29;20911;-74
2023/09/13 12:08:34;;;;;;;4.60;2.80;;;21.60;99.90;;;;;;4915311;29;20704;-73
2023/09/13 12:11:06;;;;;;;2.60;2.37;;;21.80;99.90;;;;;;4917431;29;20424;-73
2023/09/13 12:13:40;;;;;;;2.50;2.30;;;21.70;99.90;;;;;;4913207;29;20425;-73
2023/09/13 12:16:06;;;;;;;2.50;2.27;;;21.50;99.90;;;;;;4918645;29;20442;-73
2023/09/13 12:18:32;;;;;;;2.57;2.37;;;21.60;99.90;;;;;;4918309;29;20790;-73
2023/09/13 12:20:58;;;;;;;2.53;2.33;;;21.70;99.90;;;;;;4917447;29;20675;-73
2023/09/13 12:23:27;;;;;;;2.77;2.57;;;21.90;99.90;;;;;;4917023;29;20273;-73
2023/09/13 12:25:56;;;;;;;2.50;2.30;;;21.90;99.90;;;;;;4917437;29;20494;-73
2023/09/13 12:28:31;;;;;;;2.70;2.10;;;22.20;99.90;;;;;;4917249;29;20436;-73
2023/09/13 12:30:57;;;;;;;2.53;2.33;;;22.20;99.90;;;;;;4916842;29;20430;-73
2023/09/13 12:33:24;;;;;;;2.53;2.33;;;22.30;99.90;;;;;;4917102;29;20430;-73
2023/09/13 12:35:51;;;;;;;2.63;2.23;;;22.10;99.90;;;;;;4916917;29;20980;-73
2023/09/13 12:38:19;;;;;;;3.83;3.23;;;22.20;99.90;;;;;;4917610;29;20945;-74
2023/09/13 12:40:54;;;;;;;4.37;2.97;;;22.20;99.90;;;;;;4917441;29;20968;-73
2023/09/13 12:43:32;;;;;;;3.70;3.40;;;22.20;99.90;;;;;;4917452;29;20425;-72
2023/09/13 12:45:58;;;;;;;3.73;3.23;;;22.10;99.90;;;;;;4917296;29;20442;-73